sensor_id;sensor_type;location;lat;lon;timestamp;temperature;humidity
18581;DHT22;9420;50.876;7.012;2023-02-15T00:01:48;2.90;99.90
18581;DHT22;9420;50.876;7.012;2023-02-15T00:04:18;3.00;99.90
18581;DHT22;9420;50.876;7.012;2023-02-15T00:06:46;2.90;99.90
18581;DHT22;9420;50.876;7.012;2023-02-15T00:09:15;2.90;99.90
18581;DHT22;9420;50.876;7.012;2023-02-15T00:11:43;2.90;99.90
18581;DHT22;9420;50.876;7.012;2023-02-15T00:14:17;2.90;99.90
18581;DHT22;9420;50.876;7.012;2023-02-15T00:16:47;2.80;99.90
18581;DHT22;9420;50.876;7.012;2023-02-15T00:19:16;2.80;99.90
18581;DHT22;9420;50.876;7.012;2023-02-15T00:21:45;2.80;99.90
18581;DHT22;9420;50.876;7.012;2023-02-15T00:24:16;2.80;99.90
18581;DHT22;9420;50.876;7.012;2023-02-15T00:26:46;2.70;99.90
18581;DHT22;9420;50.876;7.012;2023-02-15T00:29:15;2.70;99.90
18581;DHT22;9420;50.876;7.012;2023-02-15T00:31:43;2.70;99.90
18581;DHT22;9420;50.876;7.012;2023-02-15T00:34:12;2.70;99.90
18581;DHT22;9420;50.876;7.012;2023-02-15T00:36:41;2.70;99.90
18581;DHT22;9420;50.876;7.012;2023-02-15T00:39:09;2.70;99.90
18581;DHT22;9420;50.876;7.012;2023-02-15T00:41:37;2.70;99.90
18581;DHT22;9420;50.876;7.012;2023-02-15T00:44:04;2.60;99.90
18581;DHT22;9420;50.876;7.012;2023-02-15T00:46:32;2.60;99.90
18581;DHT22;9420;50.876;7.012;2023-02-15T00:49:00;2.60;99.90
18581;DHT22;9420;50.876;7.012;2023-02-15T00:51:28;2.60;99.90
18581;DHT22;9420;50.876;7.012;2023-02-15T00:53:55;2.60;99.90
18581;DHT22;9420;50.876;7.012;2023-02-15T00:56:22;2.60;99.90
18581;DHT22;9420;50.876;7.012;2023-02-15T00:58:51;2.60;99.90
18581;DHT22;9420;50.876;7.012;2023-02-15T01:01:19;2.60;99.90
18581;DHT22;9420;50.876;7.012;2023-02-15T01:03:47;2.50;99.90
18581;DHT22;9420;50.876;7.012;2023-02-15T01:06:16;2.50;99.90
18581;DHT22;9420;50.876;7.012;2023-02-15T01:08:43;2.50;99.90
18581;DHT22;9420;50.876;7.012;2023-02-15T01:11:13;2.50;99.90
18581;DHT22;9420;50.876;7.012;2023-02-15T01:13:48;2.40;99.90
18581;DHT22;9420;50.876;7.012;2023-02-15T01:16:17;2.40;99.90
18581;DHT22;9420;50.876;7.012;2023-02-15T01:18:44;2.40;99.90
18581;DHT22;9420;50.876;7.012;2023-02-15T01:21:13;2.40;99.90
18581;DHT22;9420;50.876;7.012;2023-02-15T01:23:41;2.40;99.90
18581;DHT22;9420;50.876;7.012;2023-02-15T01:26:09;2.40;99.90
18581;DHT22;9420;50.876;7.012;2023-02-15T01:28:37;2.30;99.90
18581;DHT22;9420;50.876;7.012;2023-02-15T01:31:06;2.30;99.90
18581;DHT22;9420;50.876;7.012;2023-02-15T01:33:35;2.30;99.90
18581;DHT22;9420;50.876;7.012;2023-02-15T01:36:03;2.30;99.90
18581;DHT22;9420;50.876;7.012;2023-02-15T01:38:31;2.30;99.90
18581;DHT22;9420;50.876;7.012;2023-02-15T01:41:00;2.30;99.90
18581;DHT22;9420;50.876;7.012;2023-02-15T01:43:42;2.30;99.90
18581;DHT22;9420;50.876;7.012;2023-02-15T01:46:14;2.20;99.90
18581;DHT22;9420;50.876;7.012;2023-02-15T01:48:48;2.20;99.90
18581;DHT22;9420;50.876;7.012;2023-02-15T01:51:21;2.10;99.90
18581;DHT22;9420;50.876;7.012;2023-02-15T01:53:53;2.10;99.90
18581;DHT22;9420;50.876;7.012;2023-02-15T01:56:26;2.10;99.90
18581;DHT22;9420;50.876;7.012;2023-02-15T01:58:59;2.10;99.90
18581;DHT22;9420;50.876;7.012;2023-02-15T02:01:29;2.00;99.90
18581;DHT22;9420;50.876;7.012;2023-02-15T02:04:05;2.00;99.90
18581;DHT22;9420;50.876;7.012;2023-02-15T02:06:39;2.00;99.90
18581;DHT22;9420;50.876;7.012;2023-02-15T02:09:06;2.00;99.90
18581;DHT22;9420;50.876;7.012;2023-02-15T02:11:34;2.00;99.90
18581;DHT22;9420;50.876;7.012;2023-02-15T02:14:02;2.00;99.90
18581;DHT22;9420;50.876;7.012;2023-02-15T02:16:37;1.90;99.90
18581;DHT22;9420;50.876;7.012;2023-02-15T02:19:40;1.90;99.90
18581;DHT22;9420;50.876;7.012;2023-02-15T02:32:48;1.80;99.90
18581;DHT22;9420;50.876;7.012;2023-02-15T02:35:30;1.80;99.90
18581;DHT22;9420;50.876;7.012;2023-02-15T02:38:07;1.80;99.90
18581;DHT22;9420;50.876;7.012;2023-02-15T02:40:46;1.80;99.90
18581;DHT22;9420;50.876;7.012;2023-02-15T02:43:26;1.70;99.90
18581;DHT22;9420;50.876;7.012;2023-02-15T02:46:05;1.70;99.90
18581;DHT22;9420;50.876;7.012;2023-02-15T02:48:39;1.70;99.90
18581;DHT22;9420;50.876;7.012;2023-02-15T02:51:06;1.70;99.90
18581;DHT22;9420;50.876;7.012;2023-02-15T02:53:34;1.60;99.90
18581;DHT22;9420;50.876;7.012;2023-02-15T02:56:06;1.60;99.90
18581;DHT22;9420;50.876;7.012;2023-02-15T02:58:45;1.70;99.90
18581;DHT22;9420;50.876;7.012;2023-02-15T03:01:20;1.70;99.90
18581;DHT22;9420;50.876;7.012;2023-02-15T03:03:56;1.60;99.90
18581;DHT22;9420;50.876;7.012;2023-02-15T03:06:31;1.60;99.90
18581;DHT22;9420;50.876;7.012;2023-02-15T03:09:08;1.60;99.90
18581;DHT22;9420;50.876;7.012;2023-02-15T03:11:42;1.60;99.90
18581;DHT22;9420;50.876;7.012;2023-02-15T03:14:11;1.60;99.90
18581;DHT22;9420;50.876;7.012;2023-02-15T03:16:41;1.60;99.90
18581;DHT22;9420;50.876;7.012;2023-02-15T03:19:17;1.60;99.90
18581;DHT22;9420;50.876;7.012;2023-02-15T03:21:50;1.60;99.90
18581;DHT22;9420;50.876;7.012;2023-02-15T03:24:32;1.60;99.90
18581;DHT22;9420;50.876;7.012;2023-02-15T03:27:07;1.60;99.90
18581;DHT22;9420;50.876;7.012;2023-02-15T03:29:46;1.50;99.90
18581;DHT22;9420;50.876;7.012;2023-02-15T03:32:17;1.50;99.90
18581;DHT22;9420;50.876;7.012;2023-02-15T03:34:46;1.50;99.90
18581;DHT22;9420;50.876;7.012;2023-02-15T03:37:17;1.50;99.90
18581;DHT22;9420;50.876;7.012;2023-02-15T03:39:54;1.50;99.90
18581;DHT22;9420;50.876;7.012;2023-02-15T03:42:51;1.40;99.90
18581;DHT22;9420;50.876;7.012;2023-02-15T03:45:27;1.50;99.90
18581;DHT22;9420;50.876;7.012;2023-02-15T03:47:59;1.50;99.90
18581;DHT22;9420;50.876;7.012;2023-02-15T03:50:31;1.40;99.90
18581;DHT22;9420;50.876;7.012;2023-02-15T03:53:21;1.40;99.90
18581;DHT22;9420;50.876;7.012;2023-02-15T03:55:54;1.40;99.90
18581;DHT22;9420;50.876;7.012;2023-02-15T03:58:22;1.40;99.90
18581;DHT22;9420;50.876;7.012;2023-02-15T04:01:13;1.40;99.90
18581;DHT22;9420;50.876;7.012;2023-02-15T04:04:09;1.40;99.90
18581;DHT22;9420;50.876;7.012;2023-02-15T04:06:41;1.40;99.90
18581;DHT22;9420;50.876;7.012;2023-02-15T04:09:08;1.40;99.90
18581;DHT22;9420;50.876;7.012;2023-02-15T04:11:53;1.40;99.90
18581;DHT22;9420;50.876;7.012;2023-02-15T04:14:20;1.40;99.90
18581;DHT22;9420;50.876;7.012;2023-02-15T04:17:05;1.40;99.90
18581;DHT22;9420;50.876;7.012;2023-02-15T04:19:33;1.30;99.90
18581;DHT22;9420;50.876;7.012;2023-02-15T04:22:19;1.30;99.90
18581;DHT22;9420;50.876;7.012;2023-02-15T04:25:04;1.30;99.90
18581;DHT22;9420;50.876;7.012;2023-02-15T04:27:38;1.30;99.90
18581;DHT22;9420;50.876;7.012;2023-02-15T04:30:11;1.30;99.90
18581;DHT22;9420;50.876;7.012;2023-02-15T04:32:40;1.30;99.90
18581;DHT22;9420;50.876;7.012;2023-02-15T04:35:08;1.30;99.90
18581;DHT22;9420;50.876;7.012;2023-02-15T04:37:37;1.30;99.90
18581;DHT22;9420;50.876;7.012;2023-02-15T04:40:06;1.20;99.90
18581;DHT22;9420;50.876;7.012;2023-02-15T04:42:34;1.30;99.90
18581;DHT22;9420;50.876;7.012;2023-02-15T04:45:01;1.30;99.90
18581;DHT22;9420;50.876;7.012;2023-02-15T04:47:29;1.20;99.90
18581;DHT22;9420;50.876;7.012;2023-02-15T04:49:56;1.20;99.90
18581;DHT22;9420;50.876;7.012;2023-02-15T04:52:23;1.20;99.90
18581;DHT22;9420;50.876;7.012;2023-02-15T04:54:52;1.30;99.90
18581;DHT22;9420;50.876;7.012;2023-02-15T04:57:19;1.30;99.90
18581;DHT22;9420;50.876;7.012;2023-02-15T04:59:47;1.30;99.90
18581;DHT22;9420;50.876;7.012;2023-02-15T05:02:14;1.30;99.90
18581;DHT22;9420;50.876;7.012;2023-02-15T05:04:41;1.30;99.90
18581;DHT22;9420;50.876;7.012;2023-02-15T05:07:08;1.30;99.90
18581;DHT22;9420;50.876;7.012;2023-02-15T05:09:35;1.20;99.90
18581;DHT22;9420;50.876;7.012;2023-02-15T05:12:04;1.20;99.90
18581;DHT22;9420;50.876;7.012;2023-02-15T05:14:31;1.20;99.90
18581;DHT22;9420;50.876;7.012;2023-02-15T05:16:58;1.20;99.90
18581;DHT22;9420;50.876;7.012;2023-02-15T05:19:27;1.10;99.90
18581;DHT22;9420;50.876;7.012;2023-02-15T05:21:54;1.20;99.90
18581;DHT22;9420;50.876;7.012;2023-02-15T05:24:21;1.10;99.90
18581;DHT22;9420;50.876;7.012;2023-02-15T05:27:08;1.20;99.90
18581;DHT22;9420;50.876;7.012;2023-02-15T05:29:54;1.20;99.90
18581;DHT22;9420;50.876;7.012;2023-02-15T05:32:21;1.10;99.90
18581;DHT22;9420;50.876;7.012;2023-02-15T05:34:48;1.10;99.90
18581;DHT22;9420;50.876;7.012;2023-02-15T05:37:15;1.10;99.90
18581;DHT22;9420;50.876;7.012;2023-02-15T05:39:42;1.10;99.90
18581;DHT22;9420;50.876;7.012;2023-02-15T05:42:11;1.10;99.90
18581;DHT22;9420;50.876;7.012;2023-02-15T05:44:38;1.10;99.90
18581;DHT22;9420;50.876;7.012;2023-02-15T05:47:05;1.00;99.90
18581;DHT22;9420;50.876;7.012;2023-02-15T05:49:33;1.00;99.90
18581;DHT22;9420;50.876;7.012;2023-02-15T05:52:00;1.00;99.90
18581;DHT22;9420;50.876;7.012;2023-02-15T05:54:28;1.00;99.90
18581;DHT22;9420;50.876;7.012;2023-02-15T05:56:55;1.00;99.90
18581;DHT22;9420;50.876;7.012;2023-02-15T05:59:24;1.00;99.90
18581;DHT22;9420;50.876;7.012;2023-02-15T06:01:51;1.00;99.90
18581;DHT22;9420;50.876;7.012;2023-02-15T06:04:18;1.00;99.90
18581;DHT22;9420;50.876;7.012;2023-02-15T06:06:45;1.10;99.90
18581;DHT22;9420;50.876;7.012;2023-02-15T06:09:12;1.00;99.90
18581;DHT22;9420;50.876;7.012;2023-02-15T06:11:40;1.00;99.90
18581;DHT22;9420;50.876;7.012;2023-02-15T06:14:07;1.00;99.90
18581;DHT22;9420;50.876;7.012;2023-02-15T06:16:35;1.00;99.90
18581;DHT22;9420;50.876;7.012;2023-02-15T06:19:02;1.00;99.90
18581;DHT22;9420;50.876;7.012;2023-02-15T06:21:30;1.00;99.90
18581;DHT22;9420;50.876;7.012;2023-02-15T06:23:57;1.00;99.90
18581;DHT22;9420;50.876;7.012;2023-02-15T06:26:25;1.00;99.90
18581;DHT22;9420;50.876;7.012;2023-02-15T06:28:52;1.00;99.90
18581;DHT22;9420;50.876;7.012;2023-02-15T06:31:19;1.00;99.90
18581;DHT22;9420;50.876;7.012;2023-02-15T06:33:48;1.00;99.90
18581;DHT22;9420;50.876;7.012;2023-02-15T06:36:15;1.00;99.90
18581;DHT22;9420;50.876;7.012;2023-02-15T06:38:42;1.00;99.90
18581;DHT22;9420;50.876;7.012;2023-02-15T06:41:12;1.00;99.90
18581;DHT22;9420;50.876;7.012;2023-02-15T06:43:39;1.00;99.90
18581;DHT22;9420;50.876;7.012;2023-02-15T06:46:06;1.00;99.90
18581;DHT22;9420;50.876;7.012;2023-02-15T06:48:33;1.00;99.90
18581;DHT22;9420;50.876;7.012;2023-02-15T06:51:04;1.00;99.90
18581;DHT22;9420;50.876;7.012;2023-02-15T06:53:32;1.00;99.90
18581;DHT22;9420;50.876;7.012;2023-02-15T06:56:03;1.00;99.90
18581;DHT22;9420;50.876;7.012;2023-02-15T06:58:34;1.00;99.90
18581;DHT22;9420;50.876;7.012;2023-02-15T07:01:02;1.00;99.90
18581;DHT22;9420;50.876;7.012;2023-02-15T07:03:31;1.00;99.90
18581;DHT22;9420;50.876;7.012;2023-02-15T07:06:00;1.00;99.90
18581;DHT22;9420;50.876;7.012;2023-02-15T07:08:37;1.00;99.90
18581;DHT22;9420;50.876;7.012;2023-02-15T07:13:47;1.00;99.90
18581;DHT22;9420;50.876;7.012;2023-02-15T07:16:14;1.10;99.90
18581;DHT22;9420;50.876;7.012;2023-02-15T07:18:42;1.10;99.90
18581;DHT22;9420;50.876;7.012;2023-02-15T07:21:10;1.10;99.90
18581;DHT22;9420;50.876;7.012;2023-02-15T07:23:38;1.20;99.90
18581;DHT22;9420;50.876;7.012;2023-02-15T07:26:07;1.10;99.90
18581;DHT22;9420;50.876;7.012;2023-02-15T07:28:35;1.10;99.90
18581;DHT22;9420;50.876;7.012;2023-02-15T07:31:03;1.10;99.90
18581;DHT22;9420;50.876;7.012;2023-02-15T07:33:32;1.20;99.90
18581;DHT22;9420;50.876;7.012;2023-02-15T07:36:01;1.20;99.90
18581;DHT22;9420;50.876;7.012;2023-02-15T07:38:33;1.30;99.90
18581;DHT22;9420;50.876;7.012;2023-02-15T07:41:04;1.30;99.90
18581;DHT22;9420;50.876;7.012;2023-02-15T07:43:34;1.40;99.90
18581;DHT22;9420;50.876;7.012;2023-02-15T07:46:05;1.40;99.90
18581;DHT22;9420;50.876;7.012;2023-02-15T07:48:35;1.40;99.90
18581;DHT22;9420;50.876;7.012;2023-02-15T07:51:04;1.50;99.90
18581;DHT22;9420;50.876;7.012;2023-02-15T07:53:35;1.50;99.90
18581;DHT22;9420;50.876;7.012;2023-02-15T07:56:05;1.50;99.90
18581;DHT22;9420;50.876;7.012;2023-02-15T07:58:33;1.60;99.90
18581;DHT22;9420;50.876;7.012;2023-02-15T08:01:23;1.60;99.90
18581;DHT22;9420;50.876;7.012;2023-02-15T08:03:52;1.70;99.90
18581;DHT22;9420;50.876;7.012;2023-02-15T08:06:20;1.70;99.90
18581;DHT22;9420;50.876;7.012;2023-02-15T08:08:50;1.70;99.90
18581;DHT22;9420;50.876;7.012;2023-02-15T08:11:20;1.80;99.90
18581;DHT22;9420;50.876;7.012;2023-02-15T08:14:01;1.80;99.90
18581;DHT22;9420;50.876;7.012;2023-02-15T08:16:32;1.90;99.90
18581;DHT22;9420;50.876;7.012;2023-02-15T08:19:02;1.90;99.90
18581;DHT22;9420;50.876;7.012;2023-02-15T08:21:32;2.00;99.90
18581;DHT22;9420;50.876;7.012;2023-02-15T08:24:01;2.00;99.90
18581;DHT22;9420;50.876;7.012;2023-02-15T08:26:31;2.10;99.90
18581;DHT22;9420;50.876;7.012;2023-02-15T08:28:59;2.10;99.90
18581;DHT22;9420;50.876;7.012;2023-02-15T08:31:27;2.10;99.90
18581;DHT22;9420;50.876;7.012;2023-02-15T08:33:56;2.20;99.90
18581;DHT22;9420;50.876;7.012;2023-02-15T08:36:24;2.20;99.90
18581;DHT22;9420;50.876;7.012;2023-02-15T08:38:54;2.30;99.90
18581;DHT22;9420;50.876;7.012;2023-02-15T08:41:26;2.40;99.90
18581;DHT22;9420;50.876;7.012;2023-02-15T08:43:57;2.40;99.90
18581;DHT22;9420;50.876;7.012;2023-02-15T08:46:28;2.50;99.90
18581;DHT22;9420;50.876;7.012;2023-02-15T08:48:56;2.60;99.90
18581;DHT22;9420;50.876;7.012;2023-02-15T08:51:25;2.60;99.90
18581;DHT22;9420;50.876;7.012;2023-02-15T08:53:55;2.70;99.90
18581;DHT22;9420;50.876;7.012;2023-02-15T08:56:26;2.70;99.90
18581;DHT22;9420;50.876;7.012;2023-02-15T08:58:56;2.70;99.90
18581;DHT22;9420;50.876;7.012;2023-02-15T09:01:25;2.80;99.90
18581;DHT22;9420;50.876;7.012;2023-02-15T09:03:56;2.90;99.90
18581;DHT22;9420;50.876;7.012;2023-02-15T09:06:24;3.00;99.90
18581;DHT22;9420;50.876;7.012;2023-02-15T09:08:53;3.00;99.90
18581;DHT22;9420;50.876;7.012;2023-02-15T09:11:21;3.10;99.90
18581;DHT22;9420;50.876;7.012;2023-02-15T09:13:53;3.20;99.90
18581;DHT22;9420;50.876;7.012;2023-02-15T09:16:22;3.30;99.90
18581;DHT22;9420;50.876;7.012;2023-02-15T09:18:51;3.30;99.90
18581;DHT22;9420;50.876;7.012;2023-02-15T09:21:20;3.30;99.90
18581;DHT22;9420;50.876;7.012;2023-02-15T09:23:50;3.40;99.90
18581;DHT22;9420;50.876;7.012;2023-02-15T09:26:20;3.40;99.90
18581;DHT22;9420;50.876;7.012;2023-02-15T09:28:53;3.50;99.90
18581;DHT22;9420;50.876;7.012;2023-02-15T09:31:23;3.50;99.90
18581;DHT22;9420;50.876;7.012;2023-02-15T09:33:52;3.60;99.90
18581;DHT22;9420;50.876;7.012;2023-02-15T09:36:22;3.70;99.90
18581;DHT22;9420;50.876;7.012;2023-02-15T09:38:54;3.80;99.90
18581;DHT22;9420;50.876;7.012;2023-02-15T09:41:41;3.80;99.90
18581;DHT22;9420;50.876;7.012;2023-02-15T09:44:33;3.90;99.90
18581;DHT22;9420;50.876;7.012;2023-02-15T09:47:27;4.00;99.90
18581;DHT22;9420;50.876;7.012;2023-02-15T09:50:15;4.20;99.90
18581;DHT22;9420;50.876;7.012;2023-02-15T09:52:59;4.30;99.90
18581;DHT22;9420;50.876;7.012;2023-02-15T09:55:48;4.40;99.90
18581;DHT22;9420;50.876;7.012;2023-02-15T09:58:28;4.50;99.90
18581;DHT22;9420;50.876;7.012;2023-02-15T10:01:12;4.60;99.90
18581;DHT22;9420;50.876;7.012;2023-02-15T10:04:01;4.70;99.90
18581;DHT22;9420;50.876;7.012;2023-02-15T10:06:59;4.80;99.90
18581;DHT22;9420;50.876;7.012;2023-02-15T10:09:45;5.00;99.90
18581;DHT22;9420;50.876;7.012;2023-02-15T10:12:40;5.10;99.90
18581;DHT22;9420;50.876;7.012;2023-02-15T10:15:33;5.20;99.90
18581;DHT22;9420;50.876;7.012;2023-02-15T10:18:48;5.30;99.90
18581;DHT22;9420;50.876;7.012;2023-02-15T10:21:33;5.40;99.90
18581;DHT22;9420;50.876;7.012;2023-02-15T10:24:43;5.50;99.90
18581;DHT22;9420;50.876;7.012;2023-02-15T10:27:22;5.60;99.90
18581;DHT22;9420;50.876;7.012;2023-02-15T10:29:58;5.70;99.90
18581;DHT22;9420;50.876;7.012;2023-02-15T10:32:35;5.80;99.90
18581;DHT22;9420;50.876;7.012;2023-02-15T10:35:17;5.80;99.90
18581;DHT22;9420;50.876;7.012;2023-02-15T10:38:02;5.90;99.90
18581;DHT22;9420;50.876;7.012;2023-02-15T10:40:46;6.00;99.90
18581;DHT22;9420;50.876;7.012;2023-02-15T10:43:41;6.10;99.90
18581;DHT22;9420;50.876;7.012;2023-02-15T10:46:35;6.20;99.90
18581;DHT22;9420;50.876;7.012;2023-02-15T10:49:45;6.30;99.90
18581;DHT22;9420;50.876;7.012;2023-02-15T10:52:38;6.50;99.90
18581;DHT22;9420;50.876;7.012;2023-02-15T10:55:21;6.50;99.90
18581;DHT22;9420;50.876;7.012;2023-02-15T10:58:03;6.70;99.90
18581;DHT22;9420;50.876;7.012;2023-02-15T11:00:45;6.80;99.90
18581;DHT22;9420;50.876;7.012;2023-02-15T11:03:34;6.80;99.90
18581;DHT22;9420;50.876;7.012;2023-02-15T11:06:13;7.00;99.90
18581;DHT22;9420;50.876;7.012;2023-02-15T11:08:47;7.10;99.90
18581;DHT22;9420;50.876;7.012;2023-02-15T11:11:22;7.30;99.90
18581;DHT22;9420;50.876;7.012;2023-02-15T11:13:56;7.40;99.90
18581;DHT22;9420;50.876;7.012;2023-02-15T11:16:31;7.60;99.90
18581;DHT22;9420;50.876;7.012;2023-02-15T11:19:05;7.70;99.90
18581;DHT22;9420;50.876;7.012;2023-02-15T11:21:40;7.80;99.90
18581;DHT22;9420;50.876;7.012;2023-02-15T11:24:16;8.00;99.90
18581;DHT22;9420;50.876;7.012;2023-02-15T11:26:49;8.10;99.90
18581;DHT22;9420;50.876;7.012;2023-02-15T11:29:25;8.30;99.90
18581;DHT22;9420;50.876;7.012;2023-02-15T11:32:02;8.50;99.90
18581;DHT22;9420;50.876;7.012;2023-02-15T11:34:48;8.80;99.90
18581;DHT22;9420;50.876;7.012;2023-02-15T11:37:23;9.00;99.90
18581;DHT22;9420;50.876;7.012;2023-02-15T11:39:56;9.20;99.90
18581;DHT22;9420;50.876;7.012;2023-02-15T11:42:25;9.60;99.90
18581;DHT22;9420;50.876;7.012;2023-02-15T11:45:00;9.90;99.90
18581;DHT22;9420;50.876;7.012;2023-02-15T11:47:35;9.90;99.90
18581;DHT22;9420;50.876;7.012;2023-02-15T11:50:02;10.00;99.90
18581;DHT22;9420;50.876;7.012;2023-02-15T11:52:30;10.20;99.90
18581;DHT22;9420;50.876;7.012;2023-02-15T11:55:00;10.60;99.90
18581;DHT22;9420;50.876;7.012;2023-02-15T11:57:33;10.80;99.90
18581;DHT22;9420;50.876;7.012;2023-02-15T12:00:10;11.20;99.90
18581;DHT22;9420;50.876;7.012;2023-02-15T12:02:46;11.70;99.90
18581;DHT22;9420;50.876;7.012;2023-02-15T12:05:22;12.50;99.90
18581;DHT22;9420;50.876;7.012;2023-02-15T12:07:54;13.30;99.90
18581;DHT22;9420;50.876;7.012;2023-02-15T12:10:29;14.30;99.90
18581;DHT22;9420;50.876;7.012;2023-02-15T12:13:12;15.00;99.90
18581;DHT22;9420;50.876;7.012;2023-02-15T12:15:43;15.80;99.90
18581;DHT22;9420;50.876;7.012;2023-02-15T12:18:31;16.60;97.00
18581;DHT22;9420;50.876;7.012;2023-02-15T12:21:05;17.00;89.70
18581;DHT22;9420;50.876;7.012;2023-02-15T12:23:42;17.30;83.60
18581;DHT22;9420;50.876;7.012;2023-02-15T12:26:23;17.10;77.50
18581;DHT22;9420;50.876;7.012;2023-02-15T12:28:52;17.30;77.20
18581;DHT22;9420;50.876;7.012;2023-02-15T12:31:26;17.30;78.20
18581;DHT22;9420;50.876;7.012;2023-02-15T12:34:00;17.10;80.60
18581;DHT22;9420;50.876;7.012;2023-02-15T12:36:33;17.50;71.40
18581;DHT22;9420;50.876;7.012;2023-02-15T12:39:18;17.10;73.20
18581;DHT22;9420;50.876;7.012;2023-02-15T12:42:00;17.20;79.20
18581;DHT22;9420;50.876;7.012;2023-02-15T12:44:32;17.50;69.30
18581;DHT22;9420;50.876;7.012;2023-02-15T12:47:02;17.90;70.90
18581;DHT22;9420;50.876;7.012;2023-02-15T12:49:31;18.00;62.30
18581;DHT22;9420;50.876;7.012;2023-02-15T12:52:01;17.80;67.30
18581;DHT22;9420;50.876;7.012;2023-02-15T12:54:38;18.10;58.70
18581;DHT22;9420;50.876;7.012;2023-02-15T12:57:22;18.50;63.30
18581;DHT22;9420;50.876;7.012;2023-02-15T12:59:54;18.40;56.20
18581;DHT22;9420;50.876;7.012;2023-02-15T13:02:26;18.30;51.70
18581;DHT22;9420;50.876;7.012;2023-02-15T13:04:57;18.30;49.40
18581;DHT22;9420;50.876;7.012;2023-02-15T13:07:45;18.10;52.20
18581;DHT22;9420;50.876;7.012;2023-02-15T13:10:22;18.30;51.50
18581;DHT22;9420;50.876;7.012;2023-02-15T13:12:55;18.40;47.70
18581;DHT22;9420;50.876;7.012;2023-02-15T13:15:30;18.60;48.40
18581;DHT22;9420;50.876;7.012;2023-02-15T13:18:03;18.80;45.10
18581;DHT22;9420;50.876;7.012;2023-02-15T13:20:32;18.80;44.10
18581;DHT22;9420;50.876;7.012;2023-02-15T13:23:09;19.00;38.20
18581;DHT22;9420;50.876;7.012;2023-02-15T13:25:48;19.20;38.30
18581;DHT22;9420;50.876;7.012;2023-02-15T13:28:22;19.60;30.30
18581;DHT22;9420;50.876;7.012;2023-02-15T13:30:52;19.80;25.70
18581;DHT22;9420;50.876;7.012;2023-02-15T13:33:25;20.00;21.00
18581;DHT22;9420;50.876;7.012;2023-02-15T13:36:02;20.00;19.60
18581;DHT22;9420;50.876;7.012;2023-02-15T13:38:46;20.10;16.10
18581;DHT22;9420;50.876;7.012;2023-02-15T13:41:24;20.20;14.50
18581;DHT22;9420;50.876;7.012;2023-02-15T13:44:06;20.20;13.60
18581;DHT22;9420;50.876;7.012;2023-02-15T13:46:55;20.60;11.10
18581;DHT22;9420;50.876;7.012;2023-02-15T13:49:43;20.50;14.50
18581;DHT22;9420;50.876;7.012;2023-02-15T13:52:22;20.70;12.80
18581;DHT22;9420;50.876;7.012;2023-02-15T13:55:08;20.70;5.90
18581;DHT22;9420;50.876;7.012;2023-02-15T13:58:27;20.60;4.80
18581;DHT22;9420;50.876;7.012;2023-02-15T14:01:17;20.80;5.90
18581;DHT22;9420;50.876;7.012;2023-02-15T14:07:33;20.50;2.80
18581;DHT22;9420;50.876;7.012;2023-02-15T14:10:35;20.30;4.60
18581;DHT22;9420;50.876;7.012;2023-02-15T14:13:39;19.90;5.00
18581;DHT22;9420;50.876;7.012;2023-02-15T14:16:34;20.10;6.00
18581;DHT22;9420;50.876;7.012;2023-02-15T14:19:17;20.60;3.70
18581;DHT22;9420;50.876;7.012;2023-02-15T14:21:56;20.60;4.20
18581;DHT22;9420;50.876;7.012;2023-02-15T14:24:33;20.80;1.00
18581;DHT22;9420;50.876;7.012;2023-02-15T14:27:16;20.80;1.00
18581;DHT22;9420;50.876;7.012;2023-02-15T14:29:53;20.30;1.20
18581;DHT22;9420;50.876;7.012;2023-02-15T14:32:29;19.80;8.10
18581;DHT22;9420;50.876;7.012;2023-02-15T14:35:03;19.40;16.20
18581;DHT22;9420;50.876;7.012;2023-02-15T14:37:39;19.10;24.70
18581;DHT22;9420;50.876;7.012;2023-02-15T14:40:19;18.40;32.30
18581;DHT22;9420;50.876;7.012;2023-02-15T14:43:21;18.10;42.70
18581;DHT22;9420;50.876;7.012;2023-02-15T14:46:01;17.80;51.40
18581;DHT22;9420;50.876;7.012;2023-02-15T14:48:42;17.30;57.70
18581;DHT22;9420;50.876;7.012;2023-02-15T14:54:56;16.70;77.70
18581;DHT22;9420;50.876;7.012;2023-02-15T14:57:32;16.20;84.40
18581;DHT22;9420;50.876;7.012;2023-02-15T15:03:11;16.10;91.10
18581;DHT22;9420;50.876;7.012;2023-02-15T15:05:50;16.10;92.10
18581;DHT22;9420;50.876;7.012;2023-02-15T15:08:28;16.00;91.90
18581;DHT22;9420;50.876;7.012;2023-02-15T15:11:37;16.00;92.90
18581;DHT22;9420;50.876;7.012;2023-02-15T15:14:08;15.30;93.70
18581;DHT22;9420;50.876;7.012;2023-02-15T15:17:00;14.80;98.20
18581;DHT22;9420;50.876;7.012;2023-02-15T15:19:59;14.60;99.90
18581;DHT22;9420;50.876;7.012;2023-02-15T15:22:29;14.40;99.90
18581;DHT22;9420;50.876;7.012;2023-02-15T15:24:58;14.00;99.90
18581;DHT22;9420;50.876;7.012;2023-02-15T15:27:41;13.70;99.90
18581;DHT22;9420;50.876;7.012;2023-02-15T15:40:33;12.80;99.90
18581;DHT22;9420;50.876;7.012;2023-02-15T15:43:46;12.60;99.90
18581;DHT22;9420;50.876;7.012;2023-02-15T15:49:37;12.20;99.90
18581;DHT22;9420;50.876;7.012;2023-02-15T15:52:12;11.90;99.90
18581;DHT22;9420;50.876;7.012;2023-02-15T15:54:43;11.70;99.90
18581;DHT22;9420;50.876;7.012;2023-02-15T15:57:16;11.50;99.90
18581;DHT22;9420;50.876;7.012;2023-02-15T15:59:49;11.40;99.90
18581;DHT22;9420;50.876;7.012;2023-02-15T16:02:17;11.30;99.90
18581;DHT22;9420;50.876;7.012;2023-02-15T16:04:45;11.20;99.90
18581;DHT22;9420;50.876;7.012;2023-02-15T16:07:20;11.10;99.90
18581;DHT22;9420;50.876;7.012;2023-02-15T16:09:55;11.00;99.90
18581;DHT22;9420;50.876;7.012;2023-02-15T16:12:25;10.80;99.90
18581;DHT22;9420;50.876;7.012;2023-02-15T16:14:56;10.80;99.90
18581;DHT22;9420;50.876;7.012;2023-02-15T16:17:26;10.70;99.90
18581;DHT22;9420;50.876;7.012;2023-02-15T16:20:01;10.50;99.90
18581;DHT22;9420;50.876;7.012;2023-02-15T16:22:33;10.40;99.90
18581;DHT22;9420;50.876;7.012;2023-02-15T16:28:11;10.10;99.90
18581;DHT22;9420;50.876;7.012;2023-02-15T16:30:39;10.10;99.90
18581;DHT22;9420;50.876;7.012;2023-02-15T16:33:11;10.00;99.90
18581;DHT22;9420;50.876;7.012;2023-02-15T16:35:52;9.90;99.90
18581;DHT22;9420;50.876;7.012;2023-02-15T16:38:34;9.70;99.90
18581;DHT22;9420;50.876;7.012;2023-02-15T16:41:32;9.60;99.90
18581;DHT22;9420;50.876;7.012;2023-02-15T16:44:06;9.50;99.90
18581;DHT22;9420;50.876;7.012;2023-02-15T16:46:41;9.50;99.90
18581;DHT22;9420;50.876;7.012;2023-02-15T16:49:16;9.30;99.90
18581;DHT22;9420;50.876;7.012;2023-02-15T16:51:54;9.10;99.90
18581;DHT22;9420;50.876;7.012;2023-02-15T16:54:24;9.00;99.90
18581;DHT22;9420;50.876;7.012;2023-02-15T16:56:53;9.00;99.90
18581;DHT22;9420;50.876;7.012;2023-02-15T16:59:38;8.90;99.90
18581;DHT22;9420;50.876;7.012;2023-02-15T17:02:13;8.90;99.90
18581;DHT22;9420;50.876;7.012;2023-02-15T17:04:43;8.80;99.90
18581;DHT22;9420;50.876;7.012;2023-02-15T17:07:15;8.70;99.90
18581;DHT22;9420;50.876;7.012;2023-02-15T17:09:51;8.70;99.90
18581;DHT22;9420;50.876;7.012;2023-02-15T17:12:43;8.70;99.90
18581;DHT22;9420;50.876;7.012;2023-02-15T17:15:28;8.70;99.90
18581;DHT22;9420;50.876;7.012;2023-02-15T17:17:59;8.70;99.90
18581;DHT22;9420;50.876;7.012;2023-02-15T17:20:30;8.60;99.90
18581;DHT22;9420;50.876;7.012;2023-02-15T17:22:59;8.50;99.90
18581;DHT22;9420;50.876;7.012;2023-02-15T17:25:34;8.40;99.90